sensor_id;sensor_type;location;lat;lon;timestamp;pressure;altitude;pressure_sealevel;temperature;humidity
61318;BME280;47201;40.428;-8.436;2023-03-13T00:02:18;100916.56;;;10.91;100.00
61318;BME280;47201;40.428;-8.436;2023-03-13T00:04:18;100908.72;;;10.85;100.00
61318;BME280;47201;40.428;-8.436;2023-03-13T00:06:37;100906.97;;;10.83;100.00
61318;BME280;47201;40.428;-8.436;2023-03-13T00:08:57;100883.44;;;10.79;100.00
61318;BME280;47201;40.428;-8.436;2023-03-13T00:11:03;100874.72;;;10.76;100.00
61318;BME280;47201;40.428;-8.436;2023-03-13T00:13:04;100875.56;;;10.81;100.00
61318;BME280;47201;40.428;-8.436;2023-03-13T00:15:04;100866.88;;;10.87;100.00
61318;BME280;47201;40.428;-8.436;2023-03-13T00:17:27;100868.59;;;10.91;100.00
61318;BME280;47201;40.428;-8.436;2023-03-13T00:19:46;100863.38;;;10.83;100.00
61318;BME280;47201;40.428;-8.436;2023-03-13T00:22:05;100855.53;;;10.78;100.00
61318;BME280;47201;40.428;-8.436;2023-03-13T00:24:06;100865.13;;;10.78;100.00
61318;BME280;47201;40.428;-8.436;2023-03-13T00:26:26;100872.94;;;10.76;100.00
61318;BME280;47201;40.428;-8.436;2023-03-13T00:28:28;100868.63;;;10.75;100.00
61318;BME280;47201;40.428;-8.436;2023-03-13T00:30:48;100878.19;;;10.70;100.00
61318;BME280;47201;40.428;-8.436;2023-03-13T00:33:07;100878.19;;;10.64;100.00
61318;BME280;47201;40.428;-8.436;2023-03-13T00:35:08;100871.22;;;10.66;100.00
61318;BME280;47201;40.428;-8.436;2023-03-13T00:37:27;100865.13;;;10.69;100.00
61318;BME280;47201;40.428;-8.436;2023-03-13T00:39:47;100852.03;;;10.64;100.00
61318;BME280;47201;40.428;-8.436;2023-03-13T00:42:06;100844.19;;;10.59;100.00
61318;BME280;47201;40.428;-8.436;2023-03-13T00:44:07;100846.81;;;10.58;100.00
61318;BME280;47201;40.428;-8.436;2023-03-13T00:46:27;100856.41;;;10.54;100.00
61318;BME280;47201;40.428;-8.436;2023-03-13T00:48:47;100849.44;;;10.72;100.00
61318;BME280;47201;40.428;-8.436;2023-03-13T00:51:06;100842.47;;;10.77;100.00
61318;BME280;47201;40.428;-8.436;2023-03-13T00:53:07;100829.38;;;10.72;100.00
61318;BME280;47201;40.428;-8.436;2023-03-13T00:55:25;100835.50;;;10.63;100.00
61318;BME280;47201;40.428;-8.436;2023-03-13T00:57:44;100830.28;;;10.57;100.00
61318;BME280;47201;40.428;-8.436;2023-03-13T01:00:04;100838.09;;;10.59;100.00
61318;BME280;47201;40.428;-8.436;2023-03-13T01:02:26;100847.69;;;10.55;100.00
61318;BME280;47201;40.428;-8.436;2023-03-13T01:04:45;100836.38;;;10.45;100.00
61318;BME280;47201;40.428;-8.436;2023-03-13T01:07:06;100834.63;;;10.38;100.00
61318;BME280;47201;40.428;-8.436;2023-03-13T01:09:26;100830.19;;;10.34;100.00
61318;BME280;47201;40.428;-8.436;2023-03-13T01:11:27;100833.69;;;10.35;100.00
61318;BME280;47201;40.428;-8.436;2023-03-13T01:13:28;100824.97;;;10.32;100.00
61318;BME280;47201;40.428;-8.436;2023-03-13T01:15:33;100828.50;;;10.44;100.00
61318;BME280;47201;40.428;-8.436;2023-03-13T01:17:34;100818.06;;;10.47;100.00
61318;BME280;47201;40.428;-8.436;2023-03-13T01:19:56;100825.88;;;10.44;100.00
61318;BME280;47201;40.428;-8.436;2023-03-13T01:22:15;100827.56;;;10.36;100.00
61318;BME280;47201;40.428;-8.436;2023-03-13T01:24:17;100838.91;;;10.30;100.00
61318;BME280;47201;40.428;-8.436;2023-03-13T01:26:39;100837.13;;;10.21;100.00
61318;BME280;47201;40.428;-8.436;2023-03-13T01:28:59;100831.91;;;10.15;100.00
61318;BME280;47201;40.428;-8.436;2023-03-13T01:30:59;100831.03;;;10.10;100.00
61318;BME280;47201;40.428;-8.436;2023-03-13T01:33:20;100829.31;;;10.18;100.00
61318;BME280;47201;40.428;-8.436;2023-03-13T01:35:21;100826.69;;;10.26;100.00
61318;BME280;47201;40.428;-8.436;2023-03-13T01:37:40;100835.44;;;10.34;100.00
61318;BME280;47201;40.428;-8.436;2023-03-13T01:39:59;100831.97;;;10.34;100.00
61318;BME280;47201;40.428;-8.436;2023-03-13T01:42:00;100831.13;;;10.42;100.00
61318;BME280;47201;40.428;-8.436;2023-03-13T01:44:02;100826.78;;;10.61;100.00
61318;BME280;47201;40.428;-8.436;2023-03-13T01:50:47;100824.13;;;10.95;100.00
61318;BME280;47201;40.428;-8.436;2023-03-13T01:52:56;100819.78;;;10.94;100.00
61318;BME280;47201;40.428;-8.436;2023-03-13T01:55:03;100816.25;;;11.11;100.00
61318;BME280;47201;40.428;-8.436;2023-03-13T01:57:10;100802.22;;;11.43;100.00
61318;BME280;47201;40.428;-8.436;2023-03-13T01:59:36;100806.47;;;11.67;100.00
61318;BME280;47201;40.428;-8.436;2023-03-13T02:01:40;100803.84;;;11.75;100.00
61318;BME280;47201;40.428;-8.436;2023-03-13T02:03:41;100816.09;;;11.64;100.00
61318;BME280;47201;40.428;-8.436;2023-03-13T02:05:42;100816.16;;;11.47;100.00
61318;BME280;47201;40.428;-8.436;2023-03-13T02:10:06;100821.50;;;11.08;100.00
61318;BME280;47201;40.428;-8.436;2023-03-13T02:12:30;100825.91;;;10.93;100.00
61318;BME280;47201;40.428;-8.436;2023-03-13T02:14:50;100827.63;;;10.77;100.00
61318;BME280;47201;40.428;-8.436;2023-03-13T02:16:51;100826.78;;;10.61;100.00
61318;BME280;47201;40.428;-8.436;2023-03-13T02:18:52;100817.19;;;10.48;100.00
61318;BME280;47201;40.428;-8.436;2023-03-13T02:20:59;100813.66;;;10.30;100.00
61318;BME280;47201;40.428;-8.436;2023-03-13T02:27:08;100818.84;;;10.21;100.00
61318;BME280;47201;40.428;-8.436;2023-03-13T02:29:12;100812.78;;;10.25;100.00
61318;BME280;47201;40.428;-8.436;2023-03-13T02:31:18;100816.25;;;10.26;100.00
61318;BME280;47201;40.428;-8.436;2023-03-13T02:33:19;100831.91;;;10.21;100.00
61318;BME280;47201;40.428;-8.436;2023-03-13T02:35:22;100836.28;;;10.19;100.00
61318;BME280;47201;40.428;-8.436;2023-03-13T02:37:26;100833.66;;;10.19;100.00
61318;BME280;47201;40.428;-8.436;2023-03-13T02:39:47;100830.19;;;10.23;100.00
61318;BME280;47201;40.428;-8.436;2023-03-13T02:41:49;100841.53;;;10.25;100.00
61318;BME280;47201;40.428;-8.436;2023-03-13T02:43:50;100834.56;;;10.29;100.00
61318;BME280;47201;40.428;-8.436;2023-03-13T02:48:15;100816.22;;;10.16;100.00
61318;BME280;47201;40.428;-8.436;2023-03-13T02:50:34;100808.41;;;10.18;100.00
61318;BME280;47201;40.428;-8.436;2023-03-13T02:52:58;100799.69;;;10.18;100.00
61318;BME280;47201;40.428;-8.436;2023-03-13T02:55:23;100797.97;;;10.18;100.00
61318;BME280;47201;40.428;-8.436;2023-03-13T02:57:43;100799.69;;;10.18;100.00
61318;BME280;47201;40.428;-8.436;2023-03-13T03:00:03;100800.56;;;10.21;100.00
61318;BME280;47201;40.428;-8.436;2023-03-13T03:02:27;100790.13;;;10.18;100.00
61318;BME280;47201;40.428;-8.436;2023-03-13T03:04:28;100784.03;;;10.24;100.00
61318;BME280;47201;40.428;-8.436;2023-03-13T03:06:47;100788.44;;;10.48;100.00
61318;BME280;47201;40.428;-8.436;2023-03-13T03:09:06;100785.81;;;10.65;100.00
61318;BME280;47201;40.428;-8.436;2023-03-13T03:11:26;100783.19;;;10.67;100.00
61318;BME280;47201;40.428;-8.436;2023-03-13T03:13:32;100775.34;;;10.81;100.00
61318;BME280;47201;40.428;-8.436;2023-03-13T03:15:34;100775.34;;;10.90;100.00
61318;BME280;47201;40.428;-8.436;2023-03-13T03:17:37;100773.59;;;10.93;100.00
61318;BME280;47201;40.428;-8.436;2023-03-13T03:19:38;100778.81;;;10.89;100.00
61318;BME280;47201;40.428;-8.436;2023-03-13T03:21:38;100790.16;;;10.82;100.00
61318;BME280;47201;40.428;-8.436;2023-03-13T03:23:58;100787.53;;;10.69;100.00
61318;BME280;47201;40.428;-8.436;2023-03-13T03:25:59;100785.81;;;10.60;100.00
61318;BME280;47201;40.428;-8.436;2023-03-13T03:28:00;100790.19;;;10.55;100.00
61318;BME280;47201;40.428;-8.436;2023-03-13T03:30:02;100777.09;;;10.51;100.00
61318;BME280;47201;40.428;-8.436;2023-03-13T03:32:04;100788.44;;;10.50;100.00
61318;BME280;47201;40.428;-8.436;2023-03-13T03:34:05;100789.31;;;10.45;100.00
61318;BME280;47201;40.428;-8.436;2023-03-13T03:36:27;100790.16;;;10.43;100.00
61318;BME280;47201;40.428;-8.436;2023-03-13T03:38:28;100789.28;;;10.35;100.00
61318;BME280;47201;40.428;-8.436;2023-03-13T03:40:29;100775.31;;;10.28;100.00
61318;BME280;47201;40.428;-8.436;2023-03-13T03:42:30;100772.75;;;10.50;100.00
61318;BME280;47201;40.428;-8.436;2023-03-13T03:44:31;100758.78;;;10.72;100.00
61318;BME280;47201;40.428;-8.436;2023-03-13T03:46:50;100761.34;;;10.99;100.00
61318;BME280;47201;40.428;-8.436;2023-03-13T03:49:09;100756.06;;;11.16;100.00
61318;BME280;47201;40.428;-8.436;2023-03-13T03:51:28;100750.81;;;11.28;100.00
61318;BME280;47201;40.428;-8.436;2023-03-13T03:53:28;100748.06;;;11.54;100.00
61318;BME280;47201;40.428;-8.436;2023-03-13T03:55:29;100747.19;;;11.58;100.00
61318;BME280;47201;40.428;-8.436;2023-03-13T03:57:49;100763.75;;;11.57;100.00
61318;BME280;47201;40.428;-8.436;2023-03-13T04:00:08;100769.91;;;11.49;100.00
61318;BME280;47201;40.428;-8.436;2023-03-13T04:02:29;100777.81;;;11.38;100.00
61318;BME280;47201;40.428;-8.436;2023-03-13T04:04:30;100771.75;;;11.26;100.00
61318;BME280;47201;40.428;-8.436;2023-03-13T04:06:49;100772.66;;;11.16;100.00
61318;BME280;47201;40.428;-8.436;2023-03-13T04:08:50;100770.03;;;11.10;100.00
61318;BME280;47201;40.428;-8.436;2023-03-13T04:10:57;100767.44;;;11.11;100.00
61318;BME280;47201;40.428;-8.436;2023-03-13T04:13:00;100765.66;;;11.18;100.00
61318;BME280;47201;40.428;-8.436;2023-03-13T04:15:02;100767.41;;;11.19;100.00
61318;BME280;47201;40.428;-8.436;2023-03-13T04:17:03;100774.38;;;11.28;100.00
61318;BME280;47201;40.428;-8.436;2023-03-13T04:19:04;100783.91;;;11.38;100.00
61318;BME280;47201;40.428;-8.436;2023-03-13T04:21:05;100770.78;;;11.52;100.00
61318;BME280;47201;40.428;-8.436;2023-03-13T04:23:27;100775.94;;;11.65;100.00
61318;BME280;47201;40.428;-8.436;2023-03-13T04:25:47;100775.03;;;11.73;100.00
61318;BME280;47201;40.428;-8.436;2023-03-13T04:27:48;100774.13;;;11.82;100.00
61318;BME280;47201;40.428;-8.436;2023-03-13T04:29:50;100772.28;;;11.94;100.00
61318;BME280;47201;40.428;-8.436;2023-03-13T04:32:07;100775.78;;;12.02;100.00
61318;BME280;47201;40.428;-8.436;2023-03-13T04:34:26;100779.22;;;12.09;100.00
61318;BME280;47201;40.428;-8.436;2023-03-13T04:36:47;100772.97;;;12.25;100.00
61318;BME280;47201;40.428;-8.436;2023-03-13T04:39:06;100772.84;;;12.44;100.00
61318;BME280;47201;40.428;-8.436;2023-03-13T04:41:25;100775.41;;;12.53;100.00
61318;BME280;47201;40.428;-8.436;2023-03-13T04:43:45;100770.06;;;12.64;100.00
61318;BME280;47201;40.428;-8.436;2023-03-13T04:46:00;100774.38;;;12.71;100.00
61318;BME280;47201;40.428;-8.436;2023-03-13T04:48:21;100771.69;;;12.74;100.00
61318;BME280;47201;40.428;-8.436;2023-03-13T04:50:38;100776.84;;;12.87;100.00
61318;BME280;47201;40.428;-8.436;2023-03-13T04:53:01;100779.41;;;12.93;100.00
61318;BME280;47201;40.428;-8.436;2023-03-13T04:55:14;100776.72;;;12.96;100.00
61318;BME280;47201;40.428;-8.436;2023-03-13T04:57:44;100767.06;;;13.01;100.00
61318;BME280;47201;40.428;-8.436;2023-03-13T05:00:07;100760.00;;;13.06;100.00
61318;BME280;47201;40.428;-8.436;2023-03-13T05:02:18;100760.81;;;13.11;100.00
61318;BME280;47201;40.428;-8.436;2023-03-13T05:04:55;100776.53;;;13.17;100.00
61318;BME280;47201;40.428;-8.436;2023-03-13T05:07:14;100756.34;;;13.20;100.00
61318;BME280;47201;40.428;-8.436;2023-03-13T05:09:53;100756.38;;;13.18;100.00
61318;BME280;47201;40.428;-8.436;2023-03-13T05:12:12;100758.13;;;13.19;100.00
61318;BME280;47201;40.428;-8.436;2023-03-13T05:14:31;100758.06;;;13.22;100.00
61318;BME280;47201;40.428;-8.436;2023-03-13T05:16:50;100756.34;;;13.23;100.00
61318;BME280;47201;40.428;-8.436;2023-03-13T05:19:09;100765.94;;;13.22;100.00
61318;BME280;47201;40.428;-8.436;2023-03-13T05:21:29;100766.06;;;13.14;100.00
61318;BME280;47201;40.428;-8.436;2023-03-13T05:23:53;100761.63;;;13.21;100.00
61318;BME280;47201;40.428;-8.436;2023-03-13T05:26:12;100751.13;;;13.18;100.00
61318;BME280;47201;40.428;-8.436;2023-03-13T05:28:32;100747.53;;;13.27;100.00
61318;BME280;47201;40.428;-8.436;2023-03-13T05:30:58;100749.25;;;13.28;100.00
61318;BME280;47201;40.428;-8.436;2023-03-13T05:33:28;100735.28;;;13.26;100.00
61318;BME280;47201;40.428;-8.436;2023-03-13T05:35:53;100734.38;;;13.30;100.00
61318;BME280;47201;40.428;-8.436;2023-03-13T05:38:12;100731.75;;;13.30;100.00
61318;BME280;47201;40.428;-8.436;2023-03-13T05:40:32;100741.31;;;13.34;100.00
61318;BME280;47201;40.428;-8.436;2023-03-13T05:43:02;100733.50;;;13.28;100.00
61318;BME280;47201;40.428;-8.436;2023-03-13T05:45:21;100745.78;;;13.27;100.00
61318;BME280;47201;40.428;-8.436;2023-03-13T05:47:44;100740.59;;;13.20;100.00
61318;BME280;47201;40.428;-8.436;2023-03-13T05:50:04;100736.28;;;13.17;100.00
61318;BME280;47201;40.428;-8.436;2023-03-13T05:52:27;100733.66;;;13.15;100.00
61318;BME280;47201;40.428;-8.436;2023-03-13T05:54:50;100729.31;;;13.14;100.00
61318;BME280;47201;40.428;-8.436;2023-03-13T05:57:10;100731.94;;;13.11;100.00
61318;BME280;47201;40.428;-8.436;2023-03-13T05:59:31;100721.59;;;13.02;100.00
61318;BME280;47201;40.428;-8.436;2023-03-13T06:01:50;100722.41;;;13.04;100.00
61318;BME280;47201;40.428;-8.436;2023-03-13T06:03:59;100712.81;;;13.01;100.00
61318;BME280;47201;40.428;-8.436;2023-03-13T06:06:01;100713.75;;;12.97;100.00
61318;BME280;47201;40.428;-8.436;2023-03-13T06:08:12;100711.97;;;12.99;100.00
61318;BME280;47201;40.428;-8.436;2023-03-13T06:10:31;100709.41;;;12.96;100.00
61318;BME280;47201;40.428;-8.436;2023-03-13T06:12:53;100714.59;;;12.99;100.00
61318;BME280;47201;40.428;-8.436;2023-03-13T06:14:55;100711.09;;;13.00;100.00
61318;BME280;47201;40.428;-8.436;2023-03-13T06:17:14;100713.72;;;13.02;100.00
61318;BME280;47201;40.428;-8.436;2023-03-13T06:19:16;100718.03;;;13.06;100.00
61318;BME280;47201;40.428;-8.436;2023-03-13T06:21:16;100707.50;;;13.08;100.00
61318;BME280;47201;40.428;-8.436;2023-03-13T06:23:17;100692.59;;;13.11;100.00
61318;BME280;47201;40.428;-8.436;2023-03-13T06:25:17;100707.50;;;13.09;100.00
61318;BME280;47201;40.428;-8.436;2023-03-13T06:27:36;100711.84;;;13.12;100.00
61318;BME280;47201;40.428;-8.436;2023-03-13T06:29:37;100725.00;;;13.10;100.00
61318;BME280;47201;40.428;-8.436;2023-03-13T06:31:56;100722.38;;;13.10;100.00
61318;BME280;47201;40.428;-8.436;2023-03-13T06:33:56;100723.25;;;13.09;100.00
61318;BME280;47201;40.428;-8.436;2023-03-13T06:35:58;100735.50;;;13.10;100.00
61318;BME280;47201;40.428;-8.436;2023-03-13T06:38:18;100731.00;;;13.18;100.00
61318;BME280;47201;40.428;-8.436;2023-03-13T06:40:37;100723.97;;;13.21;100.00
61318;BME280;47201;40.428;-8.436;2023-03-13T06:42:38;100721.28;;;13.25;100.00
61318;BME280;47201;40.428;-8.436;2023-03-13T06:44:39;100718.56;;;13.33;100.00
61318;BME280;47201;40.428;-8.436;2023-03-13T06:46:40;100723.81;;;13.35;100.00
61318;BME280;47201;40.428;-8.436;2023-03-13T06:49:00;100728.03;;;13.48;100.00
61318;BME280;47201;40.428;-8.436;2023-03-13T06:51:22;100726.22;;;13.53;100.00
61318;BME280;47201;40.428;-8.436;2023-03-13T06:53:41;100727.03;;;13.57;100.00
61318;BME280;47201;40.428;-8.436;2023-03-13T06:55:42;100706.84;;;13.62;100.00
61318;BME280;47201;40.428;-8.436;2023-03-13T06:57:43;100703.34;;;13.61;100.00
61318;BME280;47201;40.428;-8.436;2023-03-13T06:59:48;100698.97;;;13.62;100.00
61318;BME280;47201;40.428;-8.436;2023-03-13T07:01:48;100698.06;;;13.64;100.00
61318;BME280;47201;40.428;-8.436;2023-03-13T07:03:49;100691.91;;;13.64;100.00
61318;BME280;47201;40.428;-8.436;2023-03-13T07:05:56;100691.91;;;13.64;100.00
61318;BME280;47201;40.428;-8.436;2023-03-13T07:07:57;100685.75;;;13.68;100.00
61318;BME280;47201;40.428;-8.436;2023-03-13T07:09:57;100680.38;;;13.76;100.00
61318;BME280;47201;40.428;-8.436;2023-03-13T07:11:58;100682.94;;;13.80;100.00
61318;BME280;47201;40.428;-8.436;2023-03-13T07:14:17;100676.84;;;13.77;100.00
61318;BME280;47201;40.428;-8.436;2023-03-13T07:16:36;100679.47;;;13.77;100.00
61318;BME280;47201;40.428;-8.436;2023-03-13T07:18:56;100686.44;;;13.79;100.00
61318;BME280;47201;40.428;-8.436;2023-03-13T07:20:57;100682.03;;;13.82;100.00
61318;BME280;47201;40.428;-8.436;2023-03-13T07:22:58;100680.25;;;13.84;100.00
61318;BME280;47201;40.428;-8.436;2023-03-13T07:24:59;100680.19;;;13.87;100.00
61318;BME280;47201;40.428;-8.436;2023-03-13T07:26:59;100679.28;;;13.91;100.00
61318;BME280;47201;40.428;-8.436;2023-03-13T07:29:00;100681.91;;;13.91;100.00
61318;BME280;47201;40.428;-8.436;2023-03-13T07:31:20;100674.03;;;13.91;100.00
61318;BME280;47201;40.428;-8.436;2023-03-13T07:33:39;100666.06;;;13.95;100.00
61318;BME280;47201;40.428;-8.436;2023-03-13T07:35:58;100666.03;;;13.97;100.00
61318;BME280;47201;40.428;-8.436;2023-03-13T07:37:58;100671.25;;;13.99;100.00
61318;BME280;47201;40.428;-8.436;2023-03-13T07:39:59;100678.16;;;14.06;100.00
61318;BME280;47201;40.428;-8.436;2023-03-13T07:41:59;100681.66;;;14.06;100.00
61318;BME280;47201;40.428;-8.436;2023-03-13T07:44:00;100688.59;;;14.10;100.00
61318;BME280;47201;40.428;-8.436;2023-03-13T07:46:03;100694.72;;;14.09;100.00
61318;BME280;47201;40.428;-8.436;2023-03-13T07:48:04;100691.22;;;14.10;100.00
61318;BME280;47201;40.428;-8.436;2023-03-13T07:50:06;100699.06;;;14.12;100.00
61318;BME280;47201;40.428;-8.436;2023-03-13T07:52:27;100694.66;;;14.14;100.00
61318;BME280;47201;40.428;-8.436;2023-03-13T07:54:28;100697.25;;;14.16;100.00
61318;BME280;47201;40.428;-8.436;2023-03-13T07:56:29;100700.69;;;14.19;100.00
61318;BME280;47201;40.428;-8.436;2023-03-13T07:58:32;100705.97;;;14.21;100.00
61318;BME280;47201;40.428;-8.436;2023-03-13T08:00:33;100706.84;;;14.20;100.00
61318;BME280;47201;40.428;-8.436;2023-03-13T08:02:33;100698.09;;;14.18;100.00
61318;BME280;47201;40.428;-8.436;2023-03-13T08:04:34;100703.41;;;14.16;100.00
61318;BME280;47201;40.428;-8.436;2023-03-13T08:06:52;100708.72;;;14.11;100.00
61318;BME280;47201;40.428;-8.436;2023-03-13T08:09:12;100710.59;;;14.03;100.00
61318;BME280;47201;40.428;-8.436;2023-03-13T08:11:31;100700.22;;;13.95;100.00
61318;BME280;47201;40.428;-8.436;2023-03-13T08:13:32;100719.56;;;13.91;100.00
61318;BME280;47201;40.428;-8.436;2023-03-13T08:15:33;100706.38;;;13.94;100.00
61318;BME280;47201;40.428;-8.436;2023-03-13T08:17:52;100727.34;;;13.98;100.00
61318;BME280;47201;40.428;-8.436;2023-03-13T08:20:11;100727.31;;;14.01;100.00
61318;BME280;47201;40.428;-8.436;2023-03-13T08:22:30;100729.91;;;14.02;100.00
61318;BME280;47201;40.428;-8.436;2023-03-13T08:24:50;100724.72;;;13.98;100.00
61318;BME280;47201;40.428;-8.436;2023-03-13T08:26:51;100729.06;;;13.99;100.00
61318;BME280;47201;40.428;-8.436;2023-03-13T08:29:11;100720.97;;;14.12;100.00
61318;BME280;47201;40.428;-8.436;2023-03-13T08:31:13;100717.16;;;14.32;100.00
61318;BME280;47201;40.428;-8.436;2023-03-13T08:33:33;100717.84;;;14.42;100.00
61318;BME280;47201;40.428;-8.436;2023-03-13T08:35:39;100722.19;;;14.44;100.00
61318;BME280;47201;40.428;-8.436;2023-03-13T08:37:40;100724.78;;;14.48;100.00
61318;BME280;47201;40.428;-8.436;2023-03-13T08:39:40;100737.16;;;14.41;100.00
61318;BME280;47201;40.428;-8.436;2023-03-13T08:41:44;100741.56;;;14.40;100.00
61318;BME280;47201;40.428;-8.436;2023-03-13T08:43:50;100748.59;;;14.40;100.00
61318;BME280;47201;40.428;-8.436;2023-03-13T08:45:54;100749.47;;;14.39;100.00
61318;BME280;47201;40.428;-8.436;2023-03-13T08:47:55;100752.16;;;14.36;100.00
61318;BME280;47201;40.428;-8.436;2023-03-13T08:49:55;100753.00;;;14.38;100.00
61318;BME280;47201;40.428;-8.436;2023-03-13T08:51:57;100750.06;;;14.55;100.00
61318;BME280;47201;40.428;-8.436;2023-03-13T08:53:57;100750.53;;;14.82;100.00
61318;BME280;47201;40.428;-8.436;2023-03-13T08:55:58;100751.22;;;14.90;100.00
61318;BME280;47201;40.428;-8.436;2023-03-13T08:57:58;100762.69;;;14.87;100.00
61318;BME280;47201;40.428;-8.436;2023-03-13T08:59:59;100761.06;;;14.82;100.00
61318;BME280;47201;40.428;-8.436;2023-03-13T09:01:59;100775.91;;;14.83;100.00
61318;BME280;47201;40.428;-8.436;2023-03-13T09:04:13;100774.03;;;14.93;100.00
61318;BME280;47201;40.428;-8.436;2023-03-13T09:06:13;100770.03;;;15.15;100.00
61318;BME280;47201;40.428;-8.436;2023-03-13T09:08:14;100762.13;;;15.59;100.00
61318;BME280;47201;40.428;-8.436;2023-03-13T09:10:15;100775.97;;;16.11;100.00
61318;BME280;47201;40.428;-8.436;2023-03-13T09:12:15;100774.47;;;16.72;100.00
61318;BME280;47201;40.428;-8.436;2023-03-13T09:14:16;100777.88;;;17.41;100.00
61318;BME280;47201;40.428;-8.436;2023-03-13T09:16:36;100783.25;;;18.27;100.00
61318;BME280;47201;40.428;-8.436;2023-03-13T09:18:37;100785.50;;;18.66;100.00
61318;BME280;47201;40.428;-8.436;2023-03-13T09:20:41;100787.59;;;19.08;100.00
61318;BME280;47201;40.428;-8.436;2023-03-13T09:22:42;100792.06;;;19.79;100.00
61318;BME280;47201;40.428;-8.436;2023-03-13T09:24:43;100797.06;;;20.53;100.00
61318;BME280;47201;40.428;-8.436;2023-03-13T09:26:44;100800.53;;;20.98;96.28
61318;BME280;47201;40.428;-8.436;2023-03-13T09:28:44;100801.00;;;20.87;96.43
61318;BME280;47201;40.428;-8.436;2023-03-13T09:30:45;100806.88;;;20.08;100.00
61318;BME280;47201;40.428;-8.436;2023-03-13T09:32:45;100814.56;;;19.45;100.00
61318;BME280;47201;40.428;-8.436;2023-03-13T09:34:46;100815.88;;;18.81;100.00
61318;BME280;47201;40.428;-8.436;2023-03-13T09:36:47;100815.63;;;18.89;100.00
61318;BME280;47201;40.428;-8.436;2023-03-13T09:38:47;100817.00;;;18.74;100.00
61318;BME280;47201;40.428;-8.436;2023-03-13T09:45:28;100836.13;;;18.83;100.00
61318;BME280;47201;40.428;-8.436;2023-03-13T09:52:37;100840.66;;;17.95;100.00
61318;BME280;47201;40.428;-8.436;2023-03-13T09:54:41;100820.78;;;17.81;100.00
61318;BME280;47201;40.428;-8.436;2023-03-13T09:56:46;100835.97;;;19.88;100.00
61318;BME280;47201;40.428;-8.436;2023-03-13T10:01:25;100852.19;;;21.32;81.87
61318;BME280;47201;40.428;-8.436;2023-03-13T10:03:28;100862.75;;;21.54;79.84
61318;BME280;47201;40.428;-8.436;2023-03-13T10:05:29;100851.69;;;22.94;70.01
61318;BME280;47201;40.428;-8.436;2023-03-13T10:07:32;100858.13;;;24.40;63.45
61318;BME280;47201;40.428;-8.436;2023-03-13T10:09:32;100848.22;;;25.48;57.89
61318;BME280;47201;40.428;-8.436;2023-03-13T10:11:37;100861.28;;;26.93;52.26
61318;BME280;47201;40.428;-8.436;2023-03-13T10:15:44;100862.94;;;29.07;46.15
61318;BME280;47201;40.428;-8.436;2023-03-13T10:17:46;100860.47;;;29.04;44.80
61318;BME280;47201;40.428;-8.436;2023-03-13T10:19:47;100870.06;;;28.84;46.70
61318;BME280;47201;40.428;-8.436;2023-03-13T10:21:55;100878.91;;;29.56;45.86
61318;BME280;47201;40.428;-8.436;2023-03-13T10:23:59;100878.66;;;29.48;47.01
61318;BME280;47201;40.428;-8.436;2023-03-13T10:26:02;100876.56;;;29.51;48.91
61318;BME280;47201;40.428;-8.436;2023-03-13T10:28:04;100877.31;;;27.85;54.74
61318;BME280;47201;40.428;-8.436;2023-03-13T10:30:05;100870.03;;;28.11;56.12
61318;BME280;47201;40.428;-8.436;2023-03-13T10:32:09;100878.59;;;27.15;58.96
61318;BME280;47201;40.428;-8.436;2023-03-13T10:34:12;100878.88;;;26.97;60.33
61318;BME280;47201;40.428;-8.436;2023-03-13T10:36:13;100886.44;;;27.18;60.68
61318;BME280;47201;40.428;-8.436;2023-03-13T10:38:18;100886.72;;;26.04;62.92
61318;BME280;47201;40.428;-8.436;2023-03-13T10:40:38;100887.69;;;24.53;67.64
61318;BME280;47201;40.428;-8.436;2023-03-13T10:42:43;100882.97;;;23.43;71.27
61318;BME280;47201;40.428;-8.436;2023-03-13T10:44:44;100893.16;;;22.82;73.41
61318;BME280;47201;40.428;-8.436;2023-03-13T10:46:46;100890.00;;;22.38;75.64
61318;BME280;47201;40.428;-8.436;2023-03-13T10:48:50;100884.75;;;22.36;74.48
61318;BME280;47201;40.428;-8.436;2023-03-13T10:50:53;100877.28;;;21.87;76.20
61318;BME280;47201;40.428;-8.436;2023-03-13T10:52:56;100878.19;;;21.46;78.29
61318;BME280;47201;40.428;-8.436;2023-03-13T10:55:01;100891.41;;;21.68;77.27
61318;BME280;47201;40.428;-8.436;2023-03-13T10:59:27;100895.84;;;22.46;73.92
61318;BME280;47201;40.428;-8.436;2023-03-13T11:01:29;100900.59;;;22.39;73.79
61318;BME280;47201;40.428;-8.436;2023-03-13T11:03:32;100897.06;;;22.58;74.23
61318;BME280;47201;40.428;-8.436;2023-03-13T11:05:40;100890.44;;;22.84;75.61
61318;BME280;47201;40.428;-8.436;2023-03-13T11:07:42;100891.97;;;22.88;73.14
61318;BME280;47201;40.428;-8.436;2023-03-13T11:12:16;100902.72;;;20.91;82.54
61318;BME280;47201;40.428;-8.436;2023-03-13T11:14:22;100902.91;;;19.94;87.70
61318;BME280;47201;40.428;-8.436;2023-03-13T11:16:25;100916.03;;;20.67;84.18
61318;BME280;47201;40.428;-8.436;2023-03-13T11:21:02;100911.16;;;20.56;79.86
61318;BME280;47201;40.428;-8.436;2023-03-13T11:23:08;100913.50;;;21.50;74.66
61318;BME280;47201;40.428;-8.436;2023-03-13T11:25:13;100917.00;;;22.11;71.90
61318;BME280;47201;40.428;-8.436;2023-03-13T11:27:26;100916.75;;;22.34;69.27
61318;BME280;47201;40.428;-8.436;2023-03-13T11:29:35;100917.84;;;22.86;68.34
61318;BME280;47201;40.428;-8.436;2023-03-13T11:31:50;100926.09;;;22.99;67.58
61318;BME280;47201;40.428;-8.436;2023-03-13T11:34:16;100918.47;;;21.97;72.58
61318;BME280;47201;40.428;-8.436;2023-03-13T11:37:02;100930.66;;;21.22;75.03